La Grange, Kentucky
Current Conditions -  °F | °C
As of 1:53 AM on Friday 31 Oct 2014 (Local Time) from KLOU Reporting Station
Overcast Overcast  
Wind Chill: 49°   Ceiling: 5500
Heat Index: 49°   Visibility: 10mi
Dew Point: 38°   Wind: 0mph
Humidity: 66%   Direction: NA
Pressure: 30.04"   Gusts: NA
Location:  38.4°N, 85.38°W
Report Text: KLOU 310553Z AUTO 00000KT 10SM OVC055 09/03 A3004 RMK AO2 SLP173 T00940033 10106 20067 58005
Loading
Personal Weather Stations






























Interactive Weather Map
Tropical Storm Tracking
New forecast layout! Learn more

10-Day Weather Forecast

Advertisements
Track Severe Weather on mobile